Magna, Utah
Current Conditions -  °F | °C
As of 12:53 PM on Sunday 21 Dec 2014 (Local Time) from KSLC Reporting Station
Moderate Rain Moderate Rain  
Wind Chill: 34°   Ceiling: 3800
Heat Index: 41°   Visibility: 7mi
Dew Point: 38°   Wind: 12mph
Humidity: 89%   Direction: 140°SE
Pressure: 29.94"   Gusts: NA
Location:  40.7°N, 112.09°W
Report Text: KSLC 211953Z 14010KT 7SM RA SCT030 OVC038 05/03 A2994 RMK AO2 SLP134 P0006 T00500033
Loading
Personal Weather Stations






























Interactive Weather Map New forecast layout! Learn more

10-Day Weather Forecast

Advertisements
Track Severe Weather on mobile